Time;durP1;ratioP1;P1;durP2;ratioP2;P2;SDS_P1;SDS_P2;PMS_P1;PMS_P2;Temp;Humidity;BMP_temperature;BMP_pressure;BME280_temperature;BME280_humidity;BME280_pressure;Samples;Min_cycle;Max_cycle;Signal;HPM_P1;HPM_P2
2023/03/30 00:01:16;;;;;;;9.47;1.97;;;;;;;11.16;100.00;100521.81;4915824;29;20032;-87
2023/03/30 00:03:43;;;;;;;3.73;2.10;;;;;;;11.27;100.00;100528.78;4916955;29;20709;-86
2023/03/30 00:06:13;;;;;;;4.70;1.85;;;;;;;11.29;100.00;100512.41;4917183;29;20063;-86
2023/03/30 00:08:38;;;;;;;5.38;1.92;;;;;;;11.28;100.00;100519.69;4916242;29;20024;-87
2023/03/30 00:11:12;;;;;;;4.13;1.90;;;;;;;11.24;100.00;100505.19;4917396;29;20384;-87
2023/03/30 00:13:38;;;;;;;5.20;2.03;;;;;;;11.29;100.00;100510.56;4914293;29;20492;-86
2023/03/30 00:16:06;;;;;;;5.63;1.52;;;;;;;11.27;100.00;100488.56;4915864;29;20047;-86
2023/03/30 00:18:33;;;;;;;4.22;1.55;;;;;;;11.17;100.00;100485.88;4916255;29;20135;-86
2023/03/30 00:21:01;;;;;;;3.57;1.60;;;;;;;11.04;100.00;100493.41;4917157;29;20536;-86
2023/03/30 00:23:26;;;;;;;2.90;1.70;;;;;;;10.88;100.00;100489.91;4916940;29;20363;-86
2023/03/30 00:25:52;;;;;;;4.63;1.60;;;;;;;10.86;100.00;100494.72;4915749;29;20722;-87
2023/03/30 00:28:17;;;;;;;4.70;1.87;;;;;;;10.91;100.00;100481.34;4916341;29;20496;-86
2023/03/30 00:30:43;;;;;;;4.77;1.80;;;;;;;11.01;100.00;100480.53;4915491;29;20032;-86
2023/03/30 00:33:08;;;;;;;5.60;1.67;;;;;;;11.03;100.00;100485.63;4917134;29;20031;-86
2023/03/30 00:35:33;;;;;;;7.90;1.50;;;;;;;11.06;100.00;100485.91;4915605;29;20139;-86
2023/03/30 00:38:02;;;;;;;3.17;1.50;;;;;;;10.99;100.00;100476.53;4917420;29;20059;-87
2023/03/30 00:40:31;;;;;;;10.88;1.70;;;;;;;10.96;100.00;100469.81;4916424;29;20032;-87
2023/03/30 00:43:01;;;;;;;7.00;1.52;;;;;;;10.89;100.00;100455.88;4915207;29;20028;-87
2023/03/30 00:45:28;;;;;;;5.15;1.60;;;;;;;10.89;100.00;100458.56;4916194;29;20392;-87
2023/03/30 00:48:03;;;;;;;9.97;2.00;;;;;;;10.84;100.00;100451.34;4897459;29;20037;-87
2023/03/30 00:50:36;;;;;;;4.83;1.80;;;;;;;10.84;100.00;100459.38;4897050;29;20273;-87
2023/03/30 00:53:10;;;;;;;6.55;2.17;;;;;;;10.88;100.00;100455.06;4897991;29;20064;-87
2023/03/30 00:55:38;;;;;;;3.53;1.70;;;;;;;10.82;100.00;100428.53;4912880;29;20028;-86
2023/03/30 00:58:05;;;;;;;4.80;1.70;;;;;;;10.84;100.00;100442.47;4916857;29;20031;-87
2023/03/30 01:00:32;;;;;;;4.25;1.77;;;;;;;10.85;100.00;100430.69;4914964;29;20039;-87
2023/03/30 01:03:03;;;;;;;6.65;1.40;;;;;;;10.88;100.00;100424.78;4915689;29;20032;-87
2023/03/30 01:05:29;;;;;;;4.95;1.58;;;;;;;10.87;100.00;100425.84;4918679;29;20088;-87
2023/03/30 01:07:56;;;;;;;5.40;1.60;;;;;;;10.87;100.00;100436.56;4926839;29;20393;-86
2023/03/30 01:10:23;;;;;;;3.97;1.77;;;;;;;10.86;100.00;100432.28;4917433;29;20100;-87
2023/03/30 01:12:48;;;;;;;4.68;1.80;;;;;;;10.84;100.00;100429.88;4921717;29;20084;-86
2023/03/30 01:15:15;;;;;;;5.22;1.42;;;;;;;10.77;100.00;100431.25;4928597;29;20389;-87
2023/03/30 01:17:48;;;;;;;3.58;1.67;;;;;;;10.71;100.00;100417.84;4915912;29;20492;-88
2023/03/30 01:20:50;;;;;;;7.07;1.87;;;;;;;10.64;100.00;100428.00;4897478;29;20038;-87
2023/03/30 01:23:27;;;;;;;5.97;1.73;;;;;;;10.54;100.00;100428.78;4898509;29;20310;-87
2023/03/30 01:26:11;;;;;;;4.13;1.83;;;;;;;10.50;100.00;100432.28;4897393;29;20133;-87
2023/03/30 01:28:45;;;;;;;4.72;1.55;;;;;;;10.44;100.00;100426.91;4896117;29;20087;-87
2023/03/30 01:31:32;;;;;;;4.03;1.70;;;;;;;10.38;100.00;100427.16;4897089;29;20084;-88
2023/03/30 01:34:06;;;;;;;7.38;1.65;;;;;;;10.42;100.00;100428.25;4902578;29;20115;-87
2023/03/30 01:36:41;;;;;;;5.15;1.67;;;;;;;10.57;100.00;100430.94;4916092;29;20043;-87
2023/03/30 01:39:27;;;;;;;6.73;1.43;;;;;;;10.80;100.00;100436.03;4916036;29;20032;-87
2023/03/30 01:41:53;;;;;;;3.67;1.50;;;;;;;11.03;100.00;100438.16;4914677;29;20028;-87
2023/03/30 01:45:23;;;;;;;3.83;1.40;;;;;;;11.13;100.00;100428.53;4916021;29;20182;-87
2023/03/30 01:48:07;;;;;;;4.85;1.40;;;;;;;11.20;100.00;100420.97;4836634;29;20577;-87
2023/03/30 01:50:39;;;;;;;6.30;1.60;;;;;;;11.18;100.00;100409.72;4836366;29;20106;-87
2023/03/30 01:53:14;;;;;;;3.78;1.33;;;;;;;11.16;100.00;100401.94;4886880;29;20048;-87
2023/03/30 01:55:56;;;;;;;5.75;1.52;;;;;;;11.09;100.00;100412.16;4915511;29;20160;-87
2023/03/30 01:58:36;;;;;;;4.28;1.40;;;;;;;10.98;100.00;100422.09;4915493;29;20083;-87
2023/03/30 02:01:05;;;;;;;4.88;1.25;;;;;;;10.86;100.00;100430.41;4915539;29;20141;-87
2023/03/30 02:03:35;;;;;;;3.85;1.30;;;;;;;10.84;100.00;100435.25;4915712;29;20032;-87
2023/03/30 02:06:08;;;;;;;4.47;1.53;;;;;;;10.90;100.00;100428.00;4916027;29;20024;-87
2023/03/30 02:08:35;;;;;;;4.10;1.30;;;;;;;10.86;100.00;100424.25;4910426;29;20166;-87
2023/03/30 02:11:01;;;;;;;5.35;1.40;;;;;;;10.81;100.00;100429.59;4915820;29;20042;-87
2023/03/30 02:13:30;;;;;;;6.75;1.40;;;;;;;10.75;100.00;100429.63;4915299;29;20036;-87
2023/03/30 02:16:01;;;;;;;7.43;1.52;;;;;;;10.75;100.00;100435.00;4914653;29;20342;-87
2023/03/30 02:18:27;;;;;;;8.15;1.77;;;;;;;10.74;100.00;100427.19;4914483;29;20055;-87
2023/03/30 02:20:57;;;;;;;5.80;1.43;;;;;;;10.84;100.00;100431.75;4915046;29;20433;-87
2023/03/30 02:23:27;;;;;;;4.25;1.30;;;;;;;10.88;100.00;100414.84;4914308;29;20024;-87
2023/03/30 02:25:53;;;;;;;3.90;1.40;;;;;;;10.82;100.00;100425.84;4912705;29;20070;-87
2023/03/30 02:28:18;;;;;;;4.27;1.33;;;;;;;10.82;100.00;100417.81;4914006;29;20051;-88
2023/03/30 02:30:45;;;;;;;6.57;1.70;;;;;;;10.86;100.00;100418.88;4925723;29;20032;-87
2023/03/30 02:33:50;;;;;;;5.57;1.23;;;;;;;10.89;100.00;100418.34;4917806;29;20690;-87
2023/03/30 02:36:36;;;;;;;4.72;1.65;;;;;;;10.92;100.00;100425.88;4903479;29;20048;-88
2023/03/30 02:39:26;;;;;;;4.95;1.38;;;;;;;11.00;100.00;100419.94;4918768;29;20035;-87
2023/03/30 02:42:12;;;;;;;5.85;1.55;;;;;;;11.12;100.00;100419.66;4906712;29;20032;-87
2023/03/30 02:44:41;;;;;;;6.85;1.50;;;;;;;11.19;100.00;100422.06;4914758;29;20047;-87
2023/03/30 02:47:29;;;;;;;3.50;1.35;;;;;;;11.27;100.00;100415.31;4910274;29;20060;-87
2023/03/30 02:50:11;;;;;;;8.38;2.00;;;;;;;11.35;100.00;100420.94;4895335;29;20021;-87
2023/03/30 02:52:45;;;;;;;7.80;1.70;;;;;;;11.43;100.00;100418.78;4896501;29;20024;-87
2023/03/30 02:55:27;;;;;;;7.70;1.70;;;;;;;11.48;100.00;100418.78;4898857;29;20036;-87
2023/03/30 02:58:03;;;;;;;7.75;1.65;;;;;;;11.55;99.76;100421.94;4912620;29;20036;-87
2023/03/30 03:00:48;;;;;;;4.15;1.60;;;;;;;11.62;98.96;100419.78;4913029;29;20056;-87
2023/03/30 03:03:22;;;;;;;4.25;1.60;;;;;;;11.66;99.02;100423.53;4914519;29;20571;-87
2023/03/30 03:05:52;;;;;;;5.40;1.35;;;;;;;11.71;98.41;100413.81;4914796;29;20035;-87
2023/03/30 03:08:22;;;;;;;4.13;1.48;;;;;;;11.78;97.32;100400.94;4915282;29;20028;-87
2023/03/30 03:10:48;;;;;;;3.75;1.25;;;;;;;11.87;96.38;100391.19;4913845;29;20392;-87
2023/03/30 03:13:15;;;;;;;2.73;1.23;;;;;;;11.97;95.22;100404.59;4914062;29;20044;-87
2023/03/30 03:15:44;;;;;;;4.53;1.50;;;;;;;12.02;95.93;100408.34;4914967;29;20112;-87
2023/03/30 03:18:11;;;;;;;4.18;1.58;;;;;;;11.98;95.92;100408.06;4915282;29;20071;-87
2023/03/30 03:20:37;;;;;;;3.50;1.10;;;;;;;11.98;95.89;100410.75;4913956;29;20499;-87
2023/03/30 03:23:02;;;;;;;3.38;1.33;;;;;;;11.99;95.53;100404.31;4915109;29;20028;-87
2023/03/30 03:25:28;;;;;;;6.40;1.50;;;;;;;12.00;95.48;100407.81;4914905;29;20476;-87
2023/03/30 03:27:53;;;;;;;2.80;1.30;;;;;;;11.95;95.21;100401.38;4913156;29;20043;-88
2023/03/30 03:30:18;;;;;;;2.17;1.27;;;;;;;11.99;95.09;100395.47;4914537;29;20032;-87
2023/03/30 03:32:45;;;;;;;7.50;1.47;;;;;;;12.02;94.56;100400.31;4918419;29;20032;-87
2023/03/30 03:35:11;;;;;;;7.28;1.73;;;;;;;12.01;94.47;100399.47;4920085;29;20020;-86
2023/03/30 03:37:37;;;;;;;5.57;1.50;;;;;;;12.05;95.17;100405.13;4917782;29;20032;-88
2023/03/30 03:40:05;;;;;;;7.97;1.67;;;;;;;12.07;94.51;100408.31;4922499;29;20024;-86
2023/03/30 03:42:30;;;;;;;5.90;1.43;;;;;;;12.07;94.13;100397.56;4922423;29;20059;-87
2023/03/30 03:44:55;;;;;;;8.87;1.60;;;;;;;12.09;93.72;100396.22;4923897;29;20636;-87
2023/03/30 03:47:21;;;;;;;5.33;1.40;;;;;;;12.06;93.96;100388.72;4927034;29;20409;-87
2023/03/30 03:49:47;;;;;;;5.35;1.40;;;;;;;12.07;93.64;100389.50;4931679;29;20039;-85
2023/03/30 03:52:12;;;;;;;3.63;1.20;;;;;;;12.02;93.53;100386.88;4926551;29;20056;-87
2023/03/30 03:54:38;;;;;;;6.43;1.40;;;;;;;12.11;93.59;100390.56;4929688;29;20032;-87
2023/03/30 03:57:04;;;;;;;5.20;1.33;;;;;;;12.08;93.57;100375.81;4918850;29;20036;-87
2023/03/30 03:59:30;;;;;;;3.95;1.08;;;;;;;12.10;91.78;100383.59;4926731;29;20035;-87
2023/03/30 04:01:55;;;;;;;4.95;1.30;;;;;;;12.13;91.42;100380.34;4928174;29;20067;-87
2023/03/30 04:04:22;;;;;;;4.57;1.30;;;;;;;12.15;91.47;100380.06;4919036;29;20448;-87
2023/03/30 04:06:47;;;;;;;6.20;1.15;;;;;;;12.13;91.47;100385.72;4919021;29;20028;-87
2023/03/30 04:09:12;;;;;;;5.20;1.40;;;;;;;12.18;90.78;100387.56;4919017;29;20032;-87
2023/03/30 04:11:37;;;;;;;6.60;1.30;;;;;;;12.24;90.11;100371.13;4918920;29;20087;-87
2023/03/30 04:14:03;;;;;;;5.43;1.40;;;;;;;12.26;90.07;100379.72;4920814;29;20044;-88
2023/03/30 04:16:28;;;;;;;7.67;1.43;;;;;;;12.19;91.94;100373.03;4920078;29;20032;-86
2023/03/30 04:18:53;;;;;;;7.00;1.37;;;;;;;12.11;91.91;100369.06;4918787;29;20540;-87
2023/03/30 04:21:19;;;;;;;4.50;1.40;;;;;;;12.03;93.41;100380.44;4917877;29;20036;-86
2023/03/30 04:23:47;;;;;;;7.63;1.53;;;;;;;11.95;92.81;100366.47;4917583;29;20020;-87
2023/03/30 04:26:14;;;;;;;5.13;1.40;;;;;;;11.93;92.47;100354.41;4917764;29;20048;-87
2023/03/30 04:28:41;;;;;;;6.87;1.67;;;;;;;11.81;92.98;100360.09;4914922;29;20039;-87
2023/03/30 04:31:09;;;;;;;4.63;1.70;;;;;;;11.79;93.60;100356.91;4910249;29;20637;-87
2023/03/30 04:33:36;;;;;;;4.32;1.23;;;;;;;11.79;93.86;100360.38;4917510;29;20028;-86
2023/03/30 04:36:03;;;;;;;7.95;1.90;;;;;;;11.80;94.07;100355.81;4917444;29;20119;-86
2023/03/30 04:38:29;;;;;;;1.95;1.30;;;;;;;11.73;94.00;100355.31;4916580;29;20047;-87
2023/03/30 04:40:55;;;;;;;4.75;1.65;;;;;;;11.71;93.85;100352.09;4916022;29;20040;-87
2023/03/30 04:43:22;;;;;;;5.75;1.80;;;;;;;11.68;94.54;100355.34;4917124;29;20035;-87
2023/03/30 04:45:50;;;;;;;6.77;1.73;;;;;;;11.59;94.45;100334.47;4915790;29;20111;-86
2023/03/30 04:48:15;;;;;;;5.72;1.40;;;;;;;11.52;94.86;100342.00;4917189;29;20100;-87
2023/03/30 04:50:42;;;;;;;4.72;1.70;;;;;;;11.42;95.54;100339.38;4916759;29;20051;-87
2023/03/30 04:53:09;;;;;;;5.57;1.70;;;;;;;11.36;96.48;100344.75;4916932;29;20103;-87
2023/03/30 04:55:34;;;;;;;6.05;1.85;;;;;;;11.32;96.68;100343.69;4915360;29;20497;-86
2023/03/30 04:58:00;;;;;;;2.57;1.57;;;;;;;11.28;97.25;100345.34;4915741;29;20123;-87
2023/03/30 05:00:26;;;;;;;3.80;1.20;;;;;;;11.26;97.45;100352.03;4915813;29;20032;-85
2023/03/30 05:02:51;;;;;;;4.70;1.30;;;;;;;11.25;98.54;100356.59;4916953;29;20039;-88
2023/03/30 05:05:17;;;;;;;7.68;1.30;;;;;;;11.21;98.09;100344.81;4916971;29;20024;-86
2023/03/30 05:07:42;;;;;;;6.83;1.30;;;;;;;11.25;98.64;100351.25;4916258;29;20563;-87
2023/03/30 05:10:08;;;;;;;5.10;1.20;;;;;;;11.25;98.88;100345.88;4916143;29;20020;-87
2023/03/30 05:12:33;;;;;;;6.57;1.30;;;;;;;11.29;100.00;100356.84;4916840;29;20031;-87
2023/03/30 05:14:59;;;;;;;4.20;1.40;;;;;;;11.27;100.00;100381.28;4918406;29;20036;-86
2023/03/30 05:17:26;;;;;;;6.10;1.33;;;;;;;11.13;100.00;100399.03;4934205;29;20135;-87
2023/03/30 05:19:52;;;;;;;5.43;1.27;;;;;;;10.80;100.00;100393.97;4898258;29;20021;-86
2023/03/30 05:22:18;;;;;;;4.97;1.80;;;;;;;10.54;100.00;100401.22;4906342;29;20056;-86
2023/03/30 05:24:43;;;;;;;5.73;2.00;;;;;;;10.38;100.00;100385.16;4910955;29;20032;-87
2023/03/30 05:27:08;;;;;;;7.13;2.17;;;;;;;10.27;100.00;100397.69;4897963;29;20568;-87
2023/03/30 05:29:33;;;;;;;6.07;2.47;;;;;;;10.17;100.00;100394.97;4897860;29;20039;-87
2023/03/30 05:31:59;;;;;;;4.50;2.10;;;;;;;10.11;100.00;100402.22;4907261;29;20383;-88
2023/03/30 05:34:26;;;;;;;11.03;2.50;;;;;;;10.06;100.00;100401.41;4915562;29;20024;-88
2023/03/30 05:36:51;;;;;;;13.02;2.65;;;;;;;10.06;100.00;100406.75;4916967;29;20107;-85
2023/03/30 05:39:20;;;;;;;15.33;2.73;;;;;;;10.03;100.00;100409.94;4916236;29;20034;-88
2023/03/30 05:41:45;;;;;;;8.90;2.90;;;;;;;9.99;100.00;100407.78;4915754;29;20316;-86
2023/03/30 05:44:10;;;;;;;9.43;2.67;;;;;;;9.97;100.00;100411.81;4913865;29;20062;-87
2023/03/30 05:46:37;;;;;;;13.40;3.30;;;;;;;9.98;100.00;100422.25;4913980;29;20032;-88
2023/03/30 05:49:02;;;;;;;10.85;2.70;;;;;;;9.96;100.00;100418.22;4924403;23;20039;-87
2023/03/30 05:51:27;;;;;;;9.20;3.03;;;;;;;9.98;100.00;100426.81;4935354;29;20079;-87
2023/03/30 05:53:53;;;;;;;6.57;2.70;;;;;;;9.94;100.00;100420.38;4935139;29;20125;-86
2023/03/30 05:56:18;;;;;;;8.43;2.83;;;;;;;9.93;100.00;100411.53;4924903;29;20092;-86
2023/03/30 06:14:21;;;;;;;10.50;3.30;;;;;;;9.72;100.00;100424.03;5736370;23;20059;-85
2023/03/30 06:30:48;;;;;;;13.90;3.10;;;;;;;9.74;100.00;100434.50;5562632;23;20070;-86
2023/03/30 06:47:42;;;;;;;10.73;3.33;;;;;;;9.65;100.00;100418.94;5375456;23;20056;-86
2023/03/30 06:55:43;;;;;;;10.97;3.50;;;;;;;10.04;100.00;100457.88;5137655;23;20056;-86
2023/03/30 07:01:30;;;;;;;10.75;2.70;;;;;;;9.68;100.00;100422.94;4916033;29;20392;-86
2023/03/30 07:06:59;;;;;;;10.18;2.72;;;;;;;9.78;100.00;100446.25;5073615;23;20064;-85
2023/03/30 07:09:25;;;;;;;13.80;2.33;;;;;;;9.74;100.00;100447.88;4913181;29;20047;-83
2023/03/30 07:11:51;;;;;;;14.57;2.75;;;;;;;9.75;100.00;100452.94;4915927;29;20062;-85
2023/03/30 07:14:16;;;;;;;16.33;2.43;;;;;;;9.77;100.00;100458.84;4910874;29;20072;-86
2023/03/30 07:16:41;;;;;;;9.68;2.28;;;;;;;9.76;100.00;100454.56;4895456;29;20144;-86
2023/03/30 07:19:07;;;;;;;7.80;2.30;;;;;;;9.83;100.00;100463.16;4898371;29;20115;-86
2023/03/30 07:21:33;;;;;;;8.63;2.20;;;;;;;9.88;100.00;100469.59;4903275;29;20488;-86
2023/03/30 07:24:01;;;;;;;10.73;2.45;;;;;;;9.85;100.00;100461.03;4916815;29;20107;-86
2023/03/30 07:26:27;;;;;;;14.17;2.70;;;;;;;9.81;100.00;100454.59;4900227;29;20040;-86
2023/03/30 07:28:53;;;;;;;10.10;2.60;;;;;;;9.95;100.00;100462.13;4915908;29;20288;-87
2023/03/30 07:31:20;;;;;;;15.70;2.53;;;;;;;10.15;100.00;100472.09;4917304;29;20050;-85
2023/03/30 07:33:46;;;;;;;12.23;2.50;;;;;;;10.40;100.00;100460.69;4916834;29;20028;-85
2023/03/30 07:36:11;;;;;;;18.63;3.03;;;;;;;10.64;100.00;100462.84;4899330;29;20456;-87
2023/03/30 07:38:37;;;;;;;15.15;2.58;;;;;;;10.98;100.00;100481.06;4915992;29;20369;-87
2023/03/30 07:41:07;;;;;;;15.70;2.40;;;;;;;11.04;100.00;100471.94;4900048;29;20040;-87
2023/03/30 07:43:32;;;;;;;20.52;2.33;;;;;;;11.21;100.00;100460.13;4916624;29;20024;-87
2023/03/30 07:45:58;;;;;;;9.90;2.17;;;;;;;11.49;100.00;100490.13;4919366;29;20032;-88
2023/03/30 07:48:25;;;;;;;17.47;2.13;;;;;;;11.54;100.00;100495.47;4916181;29;20051;-86
2023/03/30 07:51:01;;;;;;;11.07;1.73;;;;;;;11.64;100.00;100497.31;4917925;29;20319;-87
2023/03/30 07:53:27;;;;;;;11.07;1.73;;;;;;;11.74;100.00;100493.81;4902513;29;20036;-88
2023/03/30 07:55:52;;;;;;;10.77;1.90;;;;;;;11.91;100.00;100510.38;4897112;29;20108;-87
2023/03/30 07:58:18;;;;;;;8.10;1.50;;;;;;;12.05;100.00;100515.22;4896970;29;20063;-87
2023/03/30 08:00:43;;;;;;;11.80;1.83;;;;;;;12.16;100.00;100510.56;4896571;29;20121;-87
2023/03/30 08:03:10;;;;;;;12.32;2.03;;;;;;;12.26;100.00;100508.66;4906311;29;20036;-87
2023/03/30 08:05:36;;;;;;;10.98;2.00;;;;;;;12.36;100.00;100501.63;4892324;29;20029;-88
2023/03/30 08:10:36;;;;;;;11.82;1.65;;;;;;;12.53;100.00;100520.06;4987131;23;20059;-88
2023/03/30 08:13:01;;;;;;;11.70;2.00;;;;;;;12.56;100.00;100527.56;4944037;29;20040;-87
2023/03/30 08:15:27;;;;;;;12.13;2.37;;;;;;;12.64;100.00;100531.53;4937775;29;20031;-88
2023/03/30 08:17:52;;;;;;;13.80;1.93;;;;;;;12.51;100.00;100517.66;4936066;29;20035;-88
2023/03/30 08:20:18;;;;;;;9.07;1.70;;;;;;;12.64;100.00;100520.78;4917172;29;20460;-88
2023/03/30 08:22:43;;;;;;;10.90;1.70;;;;;;;12.74;100.00;100520.75;4917798;29;20237;-88
2023/03/30 08:25:08;;;;;;;8.23;1.63;;;;;;;12.84;100.00;100526.03;4918097;29;20087;-88
2023/03/30 08:27:34;;;;;;;9.50;1.83;;;;;;;12.75;100.00;100546.53;4917922;29;20040;-88
2023/03/30 08:29:59;;;;;;;10.57;1.90;;;;;;;12.62;100.00;100537.22;4917906;29;20469;-88
2023/03/30 08:32:25;;;;;;;11.33;2.47;;;;;;;12.52;100.00;100532.69;4917530;29;20096;-87
2023/03/30 08:34:52;;;;;;;15.98;2.63;;;;;;;12.56;100.00;100535.63;4900970;29;20028;-88
2023/03/30 08:37:18;;;;;;;9.60;2.13;;;;;;;12.41;100.00;100537.31;4917011;29;20032;-88
2023/03/30 08:39:43;;;;;;;12.30;2.10;;;;;;;12.50;100.00;100534.84;4916431;29;20323;-88
2023/03/30 08:42:24;;;;;;;19.47;2.43;;;;;;;12.59;100.00;100537.75;4919109;29;20035;-88
2023/03/30 08:44:54;;;;;;;10.30;2.08;;;;;;;12.59;100.00;100543.13;4917506;29;20059;-89
2023/03/30 08:47:32;;;;;;;8.52;1.83;;;;;;;12.39;100.00;100534.09;4917487;29;20384;-88
2023/03/30 08:50:28;;;;;;;16.73;2.37;;;;;;;12.32;100.00;100539.00;4917487;29;20024;-88
2023/03/30 08:52:54;;;;;;;16.07;2.40;;;;;;;12.24;100.00;100531.50;4917633;29;20392;-88
2023/03/30 08:55:42;;;;;;;15.55;2.53;;;;;;;12.18;100.00;100541.47;4918293;29;20455;-88
2023/03/30 08:58:45;;;;;;;14.35;2.83;;;;;;;12.33;100.00;100539.78;4929627;23;20712;-88
2023/03/30 09:13:20;;;;;;;15.25;2.38;;;;;;;13.30;92.75;100524.06;4798793;23;20059;-87
2023/03/30 09:16:18;;;;;;;21.67;2.60;;;;;;;13.67;92.59;100549.56;4929913;29;20028;-87
2023/03/30 09:22:06;;;;;;;14.47;2.40;;;;;;;13.73;91.62;100521.47;4917021;29;20103;-87
2023/03/30 09:24:32;;;;;;;11.40;1.92;;;;;;;13.78;87.82;100552.97;4917046;29;20044;-87
2023/03/30 09:27:08;;;;;;;13.65;2.30;;;;;;;13.62;88.17;100549.63;4925018;29;20481;-88
2023/03/30 09:29:45;;;;;;;12.48;2.45;;;;;;;13.61;88.96;100573.03;4916615;29;20032;-88
2023/03/30 09:32:16;;;;;;;13.98;2.03;;;;;;;13.37;88.72;100553.31;4925056;29;20038;-87
2023/03/30 09:34:56;;;;;;;15.55;2.35;;;;;;;13.41;87.43;100551.72;4939999;29;20027;-87
2023/03/30 09:37:22;;;;;;;13.60;2.60;;;;;;;13.66;86.07;100582.97;4936682;29;20024;-87
2023/03/30 09:39:48;;;;;;;27.63;3.07;;;;;;;13.83;86.57;100569.03;4937184;29;20284;-87
2023/03/30 09:42:37;;;;;;;17.42;3.03;;;;;;;14.21;86.42;100588.00;4942827;29;20027;-87
2023/03/30 09:45:26;;;;;;;15.53;3.03;;;;;;;14.35;85.14;100587.28;4946104;29;20087;-88
2023/03/30 09:47:52;;;;;;;18.57;3.30;;;;;;;14.23;83.77;100598.53;4948370;29;20299;-87
2023/03/30 09:50:25;;;;;;;16.08;2.60;;;;;;;14.04;83.97;100569.63;4931126;29;20043;-87
2023/03/30 09:53:00;;;;;;;14.33;2.63;;;;;;;14.16;83.55;100598.06;4920833;29;20032;-87
2023/03/30 09:55:36;;;;;;;16.17;2.70;;;;;;;14.40;83.38;100603.41;4936095;29;20277;-88
2023/03/30 09:58:18;;;;;;;15.73;2.60;;;;;;;14.56;81.92;100589.72;4935951;29;20034;-87
2023/03/30 10:00:44;;;;;;;15.77;2.58;;;;;;;14.54;81.34;100590.81;4926900;29;20024;-88
2023/03/30 10:03:20;;;;;;;16.08;2.55;;;;;;;14.68;80.02;100609.81;4925298;29;20066;-87
2023/03/30 10:06:01;;;;;;;16.83;2.65;;;;;;;14.61;82.22;100603.94;4937128;29;20104;-87
2023/03/30 10:08:27;;;;;;;16.63;2.50;;;;;;;14.64;79.84;100600.66;4935616;29;20136;-87
2023/03/30 10:10:54;;;;;;;17.37;3.13;;;;;;;14.72;79.04;100601.94;4936488;29;20028;-88
2023/03/30 10:13:31;;;;;;;19.30;2.88;;;;;;;14.78;79.38;100598.09;4935270;29;20040;-88
2023/03/30 10:16:03;;;;;;;12.07;2.58;;;;;;;14.74;76.26;100598.97;4918355;29;20114;-87
2023/03/30 10:18:43;;;;;;;14.00;2.47;;;;;;;14.69;78.03;100591.75;4919130;29;20413;-88
2023/03/30 10:24:20;;;;;;;18.60;3.13;;;;;;;14.91;78.31;100620.03;4916818;29;20035;-88
2023/03/30 10:26:49;;;;;;;15.15;2.80;;;;;;;15.22;78.25;100617.66;4918590;29;20503;-88
2023/03/30 10:29:21;;;;;;;17.37;2.80;;;;;;;15.42;76.15;100611.16;4883552;29;20036;-87
2023/03/30 10:31:50;;;;;;;13.35;2.58;;;;;;;15.54;76.97;100610.66;4916808;29;20032;-87
2023/03/30 10:34:33;;;;;;;16.45;2.90;;;;;;;15.65;77.85;100621.31;4927663;29;20035;-88
2023/03/30 10:36:58;;;;;;;16.88;2.88;;;;;;;15.55;75.33;100619.56;4935027;29;20527;-88
2023/03/30 10:39:30;;;;;;;23.93;2.83;;;;;;;15.32;75.99;100616.69;4935698;29;20035;-87
2023/03/30 10:41:58;;;;;;;16.13;2.90;;;;;;;15.28;75.37;100611.09;4920182;29;20031;-87
2023/03/30 10:44:29;;;;;;;22.00;3.10;;;;;;;15.42;73.75;100621.13;4939449;29;20024;-88
2023/03/30 10:47:07;;;;;;;12.45;2.63;;;;;;;15.44;76.59;100617.03;4938287;29;20038;-87
2023/03/30 10:49:48;;;;;;;15.00;2.50;;;;;;;15.72;76.50;100624.41;4938435;29;20052;-87
2023/03/30 10:52:25;;;;;;;13.07;2.37;;;;;;;15.95;71.17;100617.28;4921961;29;20095;-88
2023/03/30 10:55:34;;;;;;;17.37;2.83;;;;;;;15.99;68.18;100614.78;4915748;29;20335;-88
2023/03/30 10:58:37;;;;;;;17.10;2.42;;;;;;;16.18;70.32;100620.06;4924090;29;20127;-88
2023/03/30 11:01:15;;;;;;;16.63;2.92;;;;;;;16.55;66.41;100617.44;4926292;29;20388;-87
2023/03/30 11:03:46;;;;;;;14.55;2.85;;;;;;;16.66;66.35;100618.81;4917945;29;20115;-87
2023/03/30 11:06:28;;;;;;;15.23;2.80;;;;;;;16.75;67.43;100613.47;4934130;29;20028;-87
2023/03/30 11:08:59;;;;;;;13.45;2.58;;;;;;;16.88;64.74;100604.53;4933577;29;20031;-88
2023/03/30 11:11:36;;;;;;;16.17;2.37;;;;;;;16.98;63.38;100618.97;4933904;29;20040;-87
2023/03/30 11:14:12;;;;;;;14.93;2.77;;;;;;;16.74;65.31;100620.00;4940519;29;20284;-88
2023/03/30 11:17:09;;;;;;;16.40;2.90;;;;;;;16.66;67.01;100621.50;4919251;29;20048;-88
2023/03/30 11:19:41;;;;;;;15.20;3.05;;;;;;;16.36;66.46;100623.78;4903694;29;20040;-88
2023/03/30 11:22:18;;;;;;;17.08;2.85;;;;;;;16.29;68.41;100612.56;4916239;29;20387;-86
2023/03/30 11:24:48;;;;;;;12.63;2.88;;;;;;;16.22;67.07;100609.47;4915411;29;20072;-87
2023/03/30 11:27:43;;;;;;;10.53;2.33;;;;;;;16.44;70.56;100617.63;4900384;29;20024;-89
2023/03/30 11:30:16;;;;;;;12.10;2.60;;;;;;;16.66;66.96;100610.69;4927124;29;20299;-87
2023/03/30 11:33:07;;;;;;;17.90;3.30;;;;;;;16.69;67.25;100614.72;4918045;29;20090;-88
2023/03/30 11:35:38;;;;;;;15.30;2.78;;;;;;;16.69;67.23;100606.59;4935254;29;20115;-87
2023/03/30 11:38:23;;;;;;;12.00;2.45;;;;;;;16.81;65.92;100618.47;4935440;29;20101;-87
2023/03/30 11:41:04;;;;;;;13.15;2.70;;;;;;;16.57;65.94;100601.72;4934237;29;20498;-88
2023/03/30 11:43:30;;;;;;;12.30;2.75;;;;;;;16.14;66.20;100609.06;4934860;29;20028;-88
2023/03/30 11:46:08;;;;;;;12.23;2.72;;;;;;;15.86;69.34;100608.25;4916268;29;20118;-88
2023/03/30 11:48:56;;;;;;;14.07;2.27;;;;;;;15.81;68.88;100619.09;4933482;29;20040;-88
2023/03/30 11:51:43;;;;;;;13.82;2.40;;;;;;;15.84;69.85;100611.22;4934882;29;20028;-89
2023/03/30 11:54:33;;;;;;;16.60;2.75;;;;;;;15.74;69.58;100635.72;4937528;29;20040;-89
2023/03/30 11:57:06;;;;;;;12.20;2.40;;;;;;;15.72;69.08;100613.59;4938271;29;20032;-88
2023/03/30 11:59:52;;;;;;;12.90;2.53;;;;;;;15.96;69.22;100621.59;4937195;29;20067;-88
2023/03/30 12:02:28;;;;;;;13.70;2.90;;;;;;;16.19;69.18;100633.28;4936699;29;20035;-88
2023/03/30 12:05:11;;;;;;;15.83;2.67;;;;;;;16.60;68.78;100634.34;4923184;29;20032;-87
2023/03/30 12:07:52;;;;;;;14.23;2.70;;;;;;;16.81;68.91;100632.00;4940788;29;20306;-88
2023/03/30 12:10:23;;;;;;;15.60;2.50;;;;;;;16.99;65.78;100644.91;4942459;29;20034;-87
2023/03/30 12:12:50;;;;;;;13.80;2.45;;;;;;;17.29;64.44;100634.47;4953619;29;20065;-88
2023/03/30 12:15:30;;;;;;;9.38;1.98;;;;;;;17.68;63.11;100639.19;4946662;29;20039;-89
2023/03/30 12:18:22;;;;;;;11.95;2.08;;;;;;;17.82;60.78;100643.72;4931042;29;20063;-87
2023/03/30 12:21:04;;;;;;;8.30;2.07;;;;;;;17.28;60.56;100639.09;4926165;29;20032;-90
2023/03/30 12:23:45;;;;;;;9.73;2.30;;;;;;;16.60;63.20;100645.19;4925037;29;20367;-87
2023/03/30 12:26:33;;;;;;;6.78;2.10;;;;;;;16.35;65.50;100646.50;4908154;29;20020;-89
2023/03/30 12:29:05;;;;;;;9.35;1.77;;;;;;;16.40;63.43;100634.78;4911157;29;20020;-89
2023/03/30 12:31:54;;;;;;;9.30;1.95;;;;;;;16.46;62.36;100641.69;4925089;29;20039;-89
2023/03/30 12:34:21;;;;;;;12.27;2.75;;;;;;;16.48;62.60;100631.38;4924283;29;20044;-89
2023/03/30 12:36:55;;;;;;;10.90;2.05;;;;;;;16.53;63.29;100628.53;4925026;29;20087;-88
2023/03/30 12:39:43;;;;;;;9.37;2.03;;;;;;;16.62;63.09;100642.16;4927535;29;20403;-90
2023/03/30 12:42:35;;;;;;;11.50;2.03;;;;;;;16.32;71.19;100652.50;4924626;29;20264;-87
2023/03/30 12:45:30;;;;;;;14.35;2.45;;;;;;;15.26;81.79;100618.69;4906865;29;20055;-86
2023/03/30 12:48:25;;;;;;;20.25;2.92;;;;;;;14.51;87.09;100633.75;4922365;29;20091;-86
2023/03/30 12:51:13;;;;;;;14.43;2.17;;;;;;;14.51;91.55;100631.03;4938873;29;20067;-87
2023/03/30 12:54:02;;;;;;;12.57;2.60;;;;;;;15.18;91.31;100621.25;4945795;29;20051;-87
2023/03/30 12:56:33;;;;;;;12.63;2.72;;;;;;;15.93;78.33;100624.06;4947750;29;20039;-88
2023/03/30 12:59:17;;;;;;;15.80;2.45;;;;;;;16.37;77.54;100616.44;4942661;29;20545;-87